createdAt,value
2023-03-06T00:00:07.728Z,1.70
2023-03-06T00:02:34.415Z,1.60
2023-03-06T00:05:01.010Z,1.60
2023-03-06T00:07:27.667Z,1.60
2023-03-06T00:09:54.315Z,1.60
2023-03-06T00:12:21.268Z,1.60
2023-03-06T00:14:47.881Z,1.60
2023-03-06T00:17:14.798Z,1.60
2023-03-06T00:19:41.602Z,1.60
2023-03-06T00:22:10.030Z,1.60
2023-03-06T00:24:36.643Z,1.60
2023-03-06T00:27:03.436Z,1.70
2023-03-06T00:29:30.155Z,1.60
2023-03-06T00:31:56.933Z,1.60
2023-03-06T00:34:23.785Z,1.70
2023-03-06T00:36:50.525Z,1.60
2023-03-06T00:39:17.354Z,1.60
2023-03-06T00:41:46.875Z,1.60
2023-03-06T00:44:13.855Z,1.60
2023-03-06T00:46:40.557Z,1.60
2023-03-06T00:49:09.096Z,1.60
2023-03-06T00:51:35.880Z,1.60
2023-03-06T00:54:02.610Z,1.50
2023-03-06T00:56:30.048Z,1.50
2023-03-06T00:58:56.855Z,1.50
2023-03-06T01:01:23.857Z,1.50
2023-03-06T01:03:50.471Z,1.50
2023-03-06T01:06:17.487Z,1.50
2023-03-06T01:08:44.088Z,1.50
2023-03-06T01:11:10.842Z,1.40
2023-03-06T01:13:37.544Z,1.40
2023-03-06T01:16:13.755Z,1.40
2023-03-06T01:18:40.998Z,1.40
2023-03-06T01:21:08.671Z,1.40
2023-03-06T01:23:35.379Z,1.40
2023-03-06T01:26:02.121Z,1.30
2023-03-06T01:28:29.136Z,1.40
2023-03-06T01:30:55.977Z,1.40
2023-03-06T01:33:22.701Z,1.40
2023-03-06T01:35:49.374Z,1.40
2023-03-06T01:38:16.213Z,1.40
2023-03-06T01:40:42.933Z,1.40
2023-03-06T01:43:29.169Z,1.40
2023-03-06T01:46:25.764Z,1.40
2023-03-06T01:49:21.131Z,1.30
2023-03-06T01:52:06.513Z,1.30
2023-03-06T01:54:40.713Z,1.30
2023-03-06T01:57:12.594Z,1.30
2023-03-06T01:59:42.250Z,1.30
2023-03-06T02:02:11.800Z,1.30
2023-03-06T02:04:40.435Z,1.30
2023-03-06T02:07:08.365Z,1.30
2023-03-06T02:09:36.323Z,1.30
2023-03-06T02:12:07.988Z,1.30
2023-03-06T02:14:35.036Z,1.20
2023-03-06T02:17:02.100Z,1.20
2023-03-06T02:20:12.072Z,1.20
2023-03-06T02:23:06.214Z,1.20
2023-03-06T02:25:43.373Z,1.10
2023-03-06T02:28:14.541Z,1.10
2023-03-06T02:30:42.760Z,1.20
2023-03-06T02:33:15.970Z,1.10
2023-03-06T02:36:13.391Z,1.10
2023-03-06T02:38:47.612Z,1.10
2023-03-06T02:41:14.790Z,1.20
2023-03-06T02:43:45.801Z,1.10
2023-03-06T02:46:12.497Z,1.10
2023-03-06T02:48:39.260Z,1.20
2023-03-06T02:51:06.056Z,1.20
2023-03-06T02:53:32.732Z,1.10
2023-03-06T02:55:59.529Z,1.10
2023-03-06T02:58:26.332Z,1.10
2023-03-06T03:00:53.046Z,1.20
2023-03-06T03:03:19.789Z,1.10
2023-03-06T03:05:46.629Z,1.10
2023-03-06T03:08:13.323Z,1.10
2023-03-06T03:10:40.010Z,1.20
2023-03-06T03:13:06.772Z,1.10
2023-03-06T03:15:33.730Z,1.10
2023-03-06T03:18:00.473Z,1.10
2023-03-06T03:20:27.094Z,1.10
2023-03-06T03:22:55.410Z,1.10
2023-03-06T03:25:23.945Z,1.10
2023-03-06T03:27:50.860Z,1.10
2023-03-06T03:30:18.370Z,1.10
2023-03-06T03:32:45.337Z,1.00
2023-03-06T03:35:12.306Z,1.00
2023-03-06T03:37:39.290Z,1.00
2023-03-06T03:40:07.351Z,1.00
2023-03-06T03:42:34.274Z,0.90
2023-03-06T03:45:00.931Z,1.00
2023-03-06T03:47:27.697Z,0.90
2023-03-06T03:49:54.440Z,1.00
2023-03-06T03:52:21.232Z,1.00
2023-03-06T03:54:47.919Z,1.00
2023-03-06T03:57:14.608Z,1.00
2023-03-06T03:59:41.296Z,1.00
2023-03-06T04:02:08.028Z,1.00
2023-03-06T04:04:34.895Z,1.00
2023-03-06T04:07:01.626Z,1.00
2023-03-06T04:09:28.342Z,1.00
2023-03-06T04:11:55.134Z,1.00
2023-03-06T04:14:21.839Z,0.90
2023-03-06T04:16:48.610Z,0.90
2023-03-06T04:19:15.314Z,0.90
2023-03-06T04:21:41.991Z,0.90
2023-03-06T04:24:08.847Z,0.90
2023-03-06T04:26:36.193Z,0.90
2023-03-06T04:29:03.011Z,0.90
2023-03-06T04:31:29.871Z,0.90
2023-03-06T04:33:56.574Z,0.90
2023-03-06T04:36:33.827Z,0.80
2023-03-06T04:39:01.282Z,0.80
2023-03-06T04:41:28.042Z,0.90
2023-03-06T04:43:55.125Z,0.90
2023-03-06T04:46:21.908Z,0.80
2023-03-06T04:48:48.598Z,0.80
2023-03-06T04:51:15.415Z,0.90
2023-03-06T04:53:42.220Z,0.80
2023-03-06T04:56:09.189Z,0.80
2023-03-06T04:58:36.217Z,0.80
2023-03-06T05:01:03.191Z,0.80
2023-03-06T05:03:30.319Z,0.80
2023-03-06T05:05:56.991Z,0.80
2023-03-06T05:08:24.011Z,0.80
2023-03-06T05:10:56.552Z,0.80
2023-03-06T05:13:23.987Z,0.80
2023-03-06T05:15:51.023Z,0.80
2023-03-06T05:18:18.011Z,0.80
2023-03-06T05:20:45.086Z,0.80
2023-03-06T05:23:11.865Z,0.70
2023-03-06T05:25:41.621Z,0.70
2023-03-06T05:28:08.955Z,0.70
2023-03-06T05:30:35.995Z,0.70
2023-03-06T05:33:02.779Z,0.70
2023-03-06T05:35:29.688Z,0.70
2023-03-06T05:37:56.555Z,0.70
2023-03-06T05:40:23.373Z,0.70
2023-03-06T05:42:50.243Z,0.70
2023-03-06T05:45:17.460Z,0.60
2023-03-06T05:47:44.221Z,0.70
2023-03-06T05:50:12.012Z,0.70
2023-03-06T05:52:39.982Z,0.70
2023-03-06T05:55:10.047Z,0.80
2023-03-06T05:57:41.459Z,0.60
2023-03-06T06:00:09.825Z,0.60
2023-03-06T06:02:36.715Z,0.60
2023-03-06T06:05:04.261Z,0.60
2023-03-06T06:07:30.927Z,0.60
2023-03-06T06:09:58.125Z,0.60
2023-03-06T06:12:30.432Z,0.60
2023-03-06T06:15:03.524Z,0.50
2023-03-06T06:17:31.576Z,0.60
2023-03-06T06:20:00.637Z,0.50
2023-03-06T06:22:27.761Z,0.50
2023-03-06T06:24:54.555Z,0.50
2023-03-06T06:27:24.122Z,0.50
2023-03-06T06:29:52.559Z,0.50
2023-03-06T06:32:19.267Z,0.50
2023-03-06T06:34:46.067Z,0.60
2023-03-06T06:37:12.878Z,0.60
2023-03-06T06:39:40.307Z,0.70
2023-03-06T06:42:28.955Z,0.70
2023-03-06T06:44:55.431Z,0.60
2023-03-06T06:47:24.576Z,0.60
2023-03-06T06:49:53.895Z,0.60
2023-03-06T06:52:21.116Z,0.60
2023-03-06T06:54:48.076Z,0.60
2023-03-06T06:57:15.240Z,0.70
2023-03-06T06:59:42.271Z,0.70
2023-03-06T07:02:15.837Z,0.60
2023-03-06T07:05:09.384Z,0.60
2023-03-06T07:07:48.032Z,0.60
2023-03-06T07:17:54.623Z,0.70
2023-03-06T07:26:49.127Z,0.80
2023-03-06T07:29:16.410Z,0.90
2023-03-06T07:31:43.183Z,0.90
2023-03-06T07:34:13.595Z,0.90
2023-03-06T07:36:40.630Z,0.90
2023-03-06T07:39:08.429Z,0.90
2023-03-06T07:41:35.623Z,0.90
2023-03-06T07:44:02.707Z,0.90
2023-03-06T07:46:29.613Z,1.00
2023-03-06T07:48:56.551Z,1.00
2023-03-06T07:51:23.288Z,1.10
2023-03-06T07:53:50.269Z,1.00
2023-03-06T07:56:17.141Z,1.10
2023-03-06T07:58:45.818Z,1.10
2023-03-06T08:01:15.326Z,1.10
2023-03-06T08:03:42.257Z,1.20
2023-03-06T08:06:11.281Z,1.20
2023-03-06T08:08:39.725Z,1.30
2023-03-06T08:11:08.086Z,1.40
2023-03-06T08:13:38.927Z,1.40
2023-03-06T08:16:06.997Z,1.50
2023-03-06T08:18:34.386Z,1.50
2023-03-06T08:21:06.413Z,1.60
2023-03-06T08:23:34.187Z,1.70
2023-03-06T08:26:03.557Z,1.70
2023-03-06T08:28:30.652Z,1.80
2023-03-06T08:30:58.229Z,1.80
2023-03-06T08:33:25.415Z,1.90
2023-03-06T08:35:52.799Z,2.00
2023-03-06T08:38:19.561Z,2.10
2023-03-06T08:40:46.275Z,2.10
2023-03-06T08:43:14.404Z,2.20
2023-03-06T08:45:41.310Z,2.30
2023-03-06T08:48:08.124Z,2.30
2023-03-06T08:50:35.058Z,2.40
2023-03-06T08:53:02.700Z,2.40
2023-03-06T08:55:30.221Z,2.50
2023-03-06T08:57:58.586Z,2.70
2023-03-06T09:00:25.679Z,2.70
2023-03-06T09:02:52.456Z,2.80
2023-03-06T09:05:19.356Z,2.90
2023-03-06T09:07:46.078Z,2.90
2023-03-06T09:10:18.850Z,2.90
2023-03-06T09:12:52.494Z,3.00
2023-03-06T09:15:21.750Z,3.10
2023-03-06T09:17:48.629Z,3.20
2023-03-06T09:20:15.702Z,3.20
2023-03-06T09:22:43.149Z,3.30
2023-03-06T09:25:13.124Z,3.30
2023-03-06T09:27:41.062Z,3.40
2023-03-06T09:30:08.765Z,3.40
2023-03-06T09:32:35.527Z,3.50
2023-03-06T09:35:02.369Z,3.50
2023-03-06T09:37:29.197Z,3.50
2023-03-06T09:39:56.309Z,3.50
2023-03-06T09:42:23.879Z,3.60
2023-03-06T09:44:55.808Z,3.60
2023-03-06T09:47:25.617Z,3.70
2023-03-06T09:50:13.948Z,3.70
2023-03-06T09:52:40.611Z,3.70
2023-03-06T09:55:10.347Z,3.70
2023-03-06T09:57:42.082Z,3.70
2023-03-06T10:00:16.066Z,3.60
2023-03-06T10:03:01.136Z,3.60
2023-03-06T10:05:35.754Z,3.50
2023-03-06T10:08:05.256Z,3.30
2023-03-06T10:10:50.813Z,3.20
2023-03-06T10:13:51.560Z,3.20
2023-03-06T10:16:30.454Z,3.20
2023-03-06T10:19:03.223Z,3.20
2023-03-06T10:21:55.813Z,3.20
2023-03-06T10:24:50.087Z,3.20
2023-03-06T10:27:35.647Z,3.20
2023-03-06T10:30:40.047Z,3.10
2023-03-06T10:33:20.844Z,3.00
2023-03-06T10:35:50.280Z,3.10
2023-03-06T10:38:21.844Z,3.10
2023-03-06T10:41:08.825Z,3.10
2023-03-06T10:43:36.797Z,3.00
2023-03-06T10:46:05.348Z,3.10
2023-03-06T10:48:35.898Z,3.20
2023-03-06T10:51:18.822Z,3.30
2023-03-06T10:54:01.251Z,3.20
2023-03-06T10:56:33.522Z,3.30
2023-03-06T10:59:25.113Z,3.30
2023-03-06T11:01:57.370Z,3.40
2023-03-06T11:04:35.207Z,3.40
2023-03-06T11:07:15.032Z,3.40
2023-03-06T11:09:43.855Z,3.40
2023-03-06T11:12:32.771Z,3.40
2023-03-06T11:15:16.285Z,3.40
2023-03-06T11:17:56.049Z,3.40
2023-03-06T11:20:48.568Z,3.50
2023-03-06T11:23:29.845Z,3.50
2023-03-06T11:26:20.073Z,3.50
2023-03-06T11:29:06.629Z,3.50
2023-03-06T11:31:57.188Z,3.60
2023-03-06T11:34:41.676Z,3.60
2023-03-06T11:37:33.610Z,3.70
2023-03-06T11:40:09.289Z,3.70
2023-03-06T11:42:42.522Z,3.70
2023-03-06T11:45:24.054Z,3.80
2023-03-06T11:48:12.498Z,3.80
2023-03-06T11:50:44.047Z,3.90
2023-03-06T11:53:17.228Z,4.00
2023-03-06T11:55:51.741Z,4.20
2023-03-06T11:58:58.710Z,4.40
2023-03-06T12:01:55.664Z,4.50
2023-03-06T12:04:38.215Z,4.60
2023-03-06T12:07:35.113Z,4.60
2023-03-06T12:10:18.504Z,4.60
2023-03-06T12:13:03.968Z,4.70
2023-03-06T12:16:07.432Z,4.70
2023-03-06T12:18:36.935Z,4.70
2023-03-06T12:21:21.422Z,4.80
2023-03-06T12:24:03.815Z,4.90
2023-03-06T12:27:15.135Z,5.10
2023-03-06T12:30:22.149Z,5.10
2023-03-06T12:33:27.735Z,5.10
2023-03-06T12:36:17.803Z,5.10
2023-03-06T12:38:59.065Z,5.10
2023-03-06T12:41:43.891Z,5.10
2023-03-06T12:44:31.779Z,5.10
2023-03-06T12:47:21.008Z,5.10
2023-03-06T12:50:02.792Z,5.10
2023-03-06T12:52:32.573Z,5.10
2023-03-06T12:55:01.017Z,5.00
2023-03-06T12:57:27.792Z,5.00
2023-03-06T12:59:55.024Z,5.00
2023-03-06T13:03:04.235Z,5.00
2023-03-06T13:05:34.182Z,5.00
2023-03-06T13:08:19.521Z,5.10
2023-03-06T13:11:04.758Z,5.10
2023-03-06T13:13:31.422Z,5.10
2023-03-06T13:16:09.920Z,5.10
2023-03-06T13:18:36.696Z,5.00
2023-03-06T13:21:04.527Z,4.90
2023-03-06T13:23:37.270Z,4.90
2023-03-06T13:26:17.185Z,4.80
2023-03-06T13:28:45.002Z,4.80
2023-03-06T13:31:27.467Z,4.80
2023-03-06T13:33:57.906Z,4.70
2023-03-06T13:36:39.581Z,4.80
2023-03-06T13:39:12.926Z,4.70
2023-03-06T13:41:43.893Z,4.80
2023-03-06T13:44:26.062Z,4.70
2023-03-06T13:47:18.216Z,4.80
2023-03-06T13:49:47.959Z,4.80
2023-03-06T13:52:40.527Z,4.80
2023-03-06T13:55:37.972Z,4.80
2023-03-06T13:58:08.118Z,4.80
2023-03-06T14:01:18.311Z,4.80
2023-03-06T14:04:18.861Z,4.80
2023-03-06T14:06:53.241Z,4.80
2023-03-06T14:09:32.502Z,4.80
2023-03-06T14:12:17.026Z,4.80
2023-03-06T14:15:09.301Z,4.80
2023-03-06T14:17:39.345Z,4.80
2023-03-06T14:20:19.707Z,4.70
2023-03-06T14:22:46.540Z,4.70
2023-03-06T14:25:17.207Z,4.70
2023-03-06T14:27:52.611Z,4.70
2023-03-06T14:30:25.288Z,4.80
2023-03-06T14:32:55.037Z,4.80
2023-03-06T14:35:28.643Z,4.70
2023-03-06T14:38:02.165Z,4.70
2023-03-06T14:40:42.309Z,4.80
2023-03-06T14:43:24.503Z,4.70
2023-03-06T14:45:59.960Z,4.70
2023-03-06T14:48:44.288Z,4.70
2023-03-06T14:51:33.296Z,4.70
2023-03-06T14:54:02.337Z,4.60
2023-03-06T14:56:32.116Z,4.70
2023-03-06T14:59:05.985Z,4.70
2023-03-06T15:01:35.698Z,4.70
2023-03-06T15:04:06.229Z,4.60
2023-03-06T15:06:41.348Z,4.50
2023-03-06T15:09:16.959Z,4.50
2023-03-06T15:12:07.010Z,4.50
2023-03-06T15:14:35.600Z,4.50
2023-03-06T15:17:17.557Z,4.50
2023-03-06T15:19:52.428Z,4.50
2023-03-06T15:22:40.296Z,4.50
2023-03-06T15:25:18.847Z,4.50
2023-03-06T15:27:52.999Z,4.50
2023-03-06T15:30:36.655Z,4.50
2023-03-06T15:33:26.252Z,4.40
2023-03-06T15:36:01.998Z,4.40
2023-03-06T15:38:44.672Z,4.30
2023-03-06T15:41:41.980Z,4.30
2023-03-06T15:44:13.658Z,4.20
2023-03-06T15:46:40.753Z,4.20
2023-03-06T15:49:15.279Z,4.10
2023-03-06T15:51:41.999Z,4.10
2023-03-06T15:54:12.448Z,4.00
2023-03-06T15:56:41.711Z,4.10
2023-03-06T15:59:15.412Z,4.00
2023-03-06T16:01:43.363Z,4.00
2023-03-06T16:04:10.130Z,4.00
2023-03-06T16:06:37.635Z,3.90
2023-03-06T16:09:05.859Z,3.90
2023-03-06T16:11:43.390Z,3.90
2023-03-06T16:14:21.302Z,3.90
2023-03-06T16:16:49.139Z,3.80
2023-03-06T16:19:25.942Z,3.80
2023-03-06T16:21:54.192Z,3.80
2023-03-06T16:24:20.890Z,3.80
2023-03-06T16:26:52.986Z,3.80
2023-03-06T16:29:25.436Z,3.80
2023-03-06T16:31:52.518Z,3.80
2023-03-06T16:34:19.872Z,3.80
2023-03-06T16:36:47.826Z,3.80
2023-03-06T16:39:19.771Z,3.70
2023-03-06T16:41:46.549Z,3.80
2023-03-06T16:44:13.808Z,3.80
2023-03-06T16:46:45.295Z,3.70
2023-03-06T16:49:20.837Z,3.70
2023-03-06T16:51:48.257Z,3.70
2023-03-06T16:54:15.670Z,3.70
2023-03-06T16:56:43.021Z,3.60
2023-03-06T16:59:10.553Z,3.60
2023-03-06T17:01:37.695Z,3.60
2023-03-06T17:04:04.762Z,3.70
2023-03-06T17:06:31.536Z,3.70
2023-03-06T17:08:59.749Z,3.70
2023-03-06T17:11:27.485Z,3.70
2023-03-06T17:13:55.391Z,3.70
2023-03-06T17:16:22.422Z,3.60
2023-03-06T17:18:49.780Z,3.70
2023-03-06T17:21:16.594Z,3.70
2023-03-06T17:23:45.128Z,3.60
2023-03-06T17:26:15.086Z,3.60
2023-03-06T17:28:42.780Z,3.60
2023-03-06T17:31:24.374Z,3.50
2023-03-06T17:33:51.972Z,3.50
2023-03-06T17:36:19.486Z,3.50
2023-03-06T17:38:46.435Z,3.50
2023-03-06T17:41:13.630Z,3.50
2023-03-06T17:43:41.152Z,3.50
2023-03-06T17:46:10.075Z,3.50
2023-03-06T17:48:37.244Z,3.50
2023-03-06T17:51:04.549Z,3.50
2023-03-06T17:53:31.633Z,3.50
2023-03-06T17:55:58.457Z,3.50
2023-03-06T17:58:26.178Z,3.50
2023-03-06T18:00:53.350Z,3.40
2023-03-06T18:03:20.005Z,3.50
2023-03-06T18:05:46.699Z,3.40
2023-03-06T18:08:13.680Z,3.40
2023-03-06T18:10:41.757Z,3.40
2023-03-06T18:13:09.919Z,3.40
2023-03-06T18:15:40.720Z,3.40
2023-03-06T18:18:07.872Z,3.40
2023-03-06T18:20:35.360Z,3.40
2023-03-06T18:23:03.621Z,3.30
2023-03-06T18:25:32.364Z,3.30
2023-03-06T18:27:59.275Z,3.30
2023-03-06T18:30:26.072Z,3.30
2023-03-06T18:32:53.392Z,3.30
2023-03-06T18:35:20.530Z,3.30
2023-03-06T18:37:47.318Z,3.30
2023-03-06T18:40:14.426Z,3.20
2023-03-06T18:42:41.139Z,3.20
2023-03-06T18:45:08.482Z,3.20
2023-03-06T18:47:35.190Z,3.20
2023-03-06T18:50:03.218Z,3.20
2023-03-06T18:52:29.947Z,3.10
2023-03-06T18:54:56.703Z,3.10
2023-03-06T18:57:23.464Z,3.10
2023-03-06T18:59:50.595Z,3.00
2023-03-06T19:02:17.450Z,3.00
2023-03-06T19:04:44.156Z,3.00
2023-03-06T19:07:13.395Z,3.00
2023-03-06T19:09:40.855Z,3.00
2023-03-06T19:12:07.810Z,3.00
2023-03-06T19:14:36.227Z,3.00
2023-03-06T19:17:03.036Z,3.00
2023-03-06T19:19:29.716Z,3.00
2023-03-06T19:21:59.996Z,2.90
2023-03-06T19:24:26.974Z,2.90
2023-03-06T19:26:53.647Z,2.90
2023-03-06T19:29:20.495Z,2.80
2023-03-06T19:31:47.300Z,2.80
2023-03-06T19:34:14.121Z,2.80
2023-03-06T19:36:40.980Z,2.80
2023-03-06T19:39:08.237Z,2.80
2023-03-06T19:41:35.089Z,2.80
2023-03-06T19:44:03.341Z,2.80
2023-03-06T19:46:31.848Z,2.80
2023-03-06T19:49:00.983Z,2.70
2023-03-06T19:51:28.322Z,2.70
2023-03-06T19:53:56.927Z,2.70
2023-03-06T19:56:26.736Z,2.70
2023-03-06T19:58:54.169Z,2.70
2023-03-06T20:01:23.086Z,2.60
2023-03-06T20:03:50.617Z,2.70
2023-03-06T20:06:19.414Z,2.60
2023-03-06T20:08:47.471Z,2.60
2023-03-06T20:11:21.551Z,2.60
2023-03-06T20:13:48.777Z,2.60
2023-03-06T20:16:16.606Z,2.60
2023-03-06T20:18:44.037Z,2.60
2023-03-06T20:21:10.877Z,2.60
2023-03-06T20:23:38.011Z,2.60
2023-03-06T20:26:07.240Z,2.60
2023-03-06T20:28:34.987Z,2.60
2023-03-06T20:31:14.450Z,2.60
2023-03-06T20:33:41.180Z,2.60
2023-03-06T20:36:19.776Z,2.60
2023-03-06T20:38:47.132Z,2.50
2023-03-06T20:41:15.637Z,2.50
2023-03-06T20:43:42.729Z,2.50
2023-03-06T20:46:11.270Z,2.50
2023-03-06T20:48:39.121Z,2.50
2023-03-06T20:51:14.735Z,2.50
2023-03-06T20:53:41.695Z,2.40
2023-03-06T20:56:15.570Z,2.50
2023-03-06T20:58:42.372Z,2.50
2023-03-06T21:01:09.436Z,2.50
2023-03-06T21:03:36.157Z,2.40
2023-03-06T21:06:02.925Z,2.40
2023-03-06T21:08:30.993Z,2.40
2023-03-06T21:10:57.705Z,2.40
2023-03-06T21:13:24.502Z,2.40
2023-03-06T21:15:51.456Z,2.30
2023-03-06T21:18:18.442Z,2.30
2023-03-06T21:20:46.204Z,2.30
2023-03-06T21:23:13.222Z,2.30
2023-03-06T21:25:51.263Z,2.30
2023-03-06T21:28:19.303Z,2.30
2023-03-06T21:30:46.289Z,2.30
2023-03-06T21:33:13.845Z,2.30
2023-03-06T21:35:46.050Z,2.30
2023-03-06T21:38:13.752Z,2.30
2023-03-06T21:40:41.026Z,2.30
2023-03-06T21:43:08.875Z,2.20
2023-03-06T21:45:35.742Z,2.20
2023-03-06T21:48:03.041Z,2.20
2023-03-06T21:50:33.091Z,2.20
2023-03-06T21:52:59.992Z,2.20
2023-03-06T21:55:27.012Z,2.20
2023-03-06T21:57:56.106Z,2.20
2023-03-06T22:00:26.609Z,2.10
2023-03-06T22:02:53.549Z,2.10
2023-03-06T22:09:28.843Z,2.10
2023-03-06T22:12:26.961Z,2.10
2023-03-06T22:14:56.725Z,2.10
2023-03-06T22:17:23.761Z,2.10
2023-03-06T22:19:51.583Z,2.10
2023-03-06T22:22:18.673Z,2.10
2023-03-06T22:24:47.934Z,2.10
2023-03-06T22:27:15.897Z,2.10
2023-03-06T22:29:42.974Z,2.10
2023-03-06T22:32:09.949Z,2.10
2023-03-06T22:34:38.224Z,2.10
2023-03-06T22:37:05.124Z,2.10
2023-03-06T22:39:33.152Z,2.00
2023-03-06T22:42:02.995Z,2.10
2023-03-06T22:44:51.787Z,2.00
2023-03-06T22:47:19.706Z,2.00
2023-03-06T22:49:52.202Z,2.00
2023-03-06T22:52:19.732Z,2.00
2023-03-06T22:54:46.699Z,2.00
2023-03-06T22:57:13.703Z,2.00
2023-03-06T22:59:40.603Z,2.00
2023-03-06T23:02:08.151Z,2.00
2023-03-06T23:04:35.376Z,2.00
2023-03-06T23:07:05.553Z,2.00
2023-03-06T23:09:34.426Z,1.90
2023-03-06T23:12:01.506Z,1.90
2023-03-06T23:14:29.256Z,2.00
2023-03-06T23:16:56.228Z,1.90
2023-03-06T23:19:23.089Z,1.90
2023-03-06T23:21:50.930Z,1.90
2023-03-06T23:24:18.241Z,2.00
2023-03-06T23:26:45.035Z,1.90
2023-03-06T23:29:18.504Z,1.90
2023-03-06T23:31:46.274Z,1.90
2023-03-06T23:34:15.385Z,1.90
2023-03-06T23:36:44.282Z,1.90
2023-03-06T23:39:12.215Z,1.90
2023-03-06T23:41:39.068Z,1.90
2023-03-06T23:44:06.005Z,1.90
2023-03-06T23:46:44.791Z,1.90
2023-03-06T23:49:25.963Z,1.80
2023-03-06T23:51:53.484Z,1.80
2023-03-06T23:54:22.886Z,1.80
2023-03-06T23:56:50.922Z,1.80
2023-03-06T23:59:19.198Z,1.80
